UASK 182000Z 04003MPS 9999 NSC 12/08 Q1007 NOSIG RMK QFE730/0973
QNH:(hPa/inHg/mmHg)1007 / 29.74 / 755
QFE:(hPa/inHg/mmHg)972 / 28.71 / 729
Temperature12
Dew Point8
Visibility> 10000
Weather
Cloud Cover
Transition Altitude10000 ft.
Transition LevelFL120
SQUAWK